<?xml version="1.0" encoding="UTF-8" standalone="no" ?>
<gpx xmlns="http://www.topografix.com/GPX/1/1" xmlns:xsi="http://www.w3.org/2001/XMLSchema-instance" xsi:schemaLocation="http://www.topografix.com/GPX/1/1 http://www.topografix.com/GPX/1/1/gpx.xsd" version="1.1" creator="VisuGPX - https://www.visugpx.com">
  <metadata>
    <name>10823738-St Fulgent 02 - Le Vendrenneau </name>
  </metadata>
  <trk>
    <name><![CDATA[10823738-St Fulgent 02 - Le Vendrenneau ]]></name>
    <trkseg>
      <trkpt lat="46.85112" lon="-1.17754">
        <ele>78</ele>
        <time>2022-03-10T14:58:44Z</time>
      </trkpt>
      <trkpt lat="46.85099" lon="-1.17765">
        <ele>78</ele>
        <time>2022-03-10T14:59:04Z</time>
      </trkpt>
      <trkpt lat="46.85096" lon="-1.17752">
        <ele>78</ele>
        <time>2022-03-10T14:59:17Z</time>
      </trkpt>
      <trkpt lat="46.85081" lon="-1.17755">
        <ele>77</ele>
        <time>2022-03-10T14:59:37Z</time>
      </trkpt>
      <trkpt lat="46.85056" lon="-1.17761">
        <ele>76</ele>
        <time>2022-03-10T15:00:11Z</time>
      </trkpt>
      <trkpt lat="46.85052" lon="-1.17743">
        <ele>76</ele>
        <time>2022-03-10T15:00:28Z</time>
      </trkpt>
      <trkpt lat="46.85054" lon="-1.17725">
        <ele>76</ele>
        <time>2022-03-10T15:00:44Z</time>
      </trkpt>
      <trkpt lat="46.85052" lon="-1.1771">
        <ele>76</ele>
        <time>2022-03-10T15:00:58Z</time>
      </trkpt>
      <trkpt lat="46.8505" lon="-1.17699">
        <ele>76</ele>
        <time>2022-03-10T15:01:09Z</time>
      </trkpt>
      <trkpt lat="46.85049" lon="-1.17685">
        <ele>76</ele>
        <time>2022-03-10T15:01:22Z</time>
      </trkpt>
      <trkpt lat="46.85054" lon="-1.17662">
        <ele>76</ele>
        <time>2022-03-10T15:01:44Z</time>
      </trkpt>
      <trkpt lat="46.85061" lon="-1.17647">
        <ele>77</ele>
        <time>2022-03-10T15:02:00Z</time>
      </trkpt>
      <trkpt lat="46.85066" lon="-1.17637">
        <ele>77</ele>
        <time>2022-03-10T15:02:12Z</time>
      </trkpt>
      <trkpt lat="46.85071" lon="-1.17656">
        <ele>77</ele>
        <time>2022-03-10T15:02:30Z</time>
      </trkpt>
      <trkpt lat="46.85088" lon="-1.17654">
        <ele>77</ele>
        <time>2022-03-10T15:02:53Z</time>
      </trkpt>
      <trkpt lat="46.85087" lon="-1.17622">
        <ele>78</ele>
        <time>2022-03-10T15:03:22Z</time>
      </trkpt>
      <trkpt lat="46.85084" lon="-1.17599">
        <ele>78</ele>
        <time>2022-03-10T15:03:44Z</time>
      </trkpt>
      <trkpt lat="46.85079" lon="-1.17575">
        <ele>78</ele>
        <time>2022-03-10T15:04:06Z</time>
      </trkpt>
      <trkpt lat="46.85077" lon="-1.17556">
        <ele>78</ele>
        <time>2022-03-10T15:04:24Z</time>
      </trkpt>
      <trkpt lat="46.8507" lon="-1.17534">
        <ele>78</ele>
        <time>2022-03-10T15:04:46Z</time>
      </trkpt>
      <trkpt lat="46.85094" lon="-1.17526">
        <ele>78</ele>
        <time>2022-03-10T15:05:19Z</time>
      </trkpt>
      <trkpt lat="46.85107" lon="-1.1752">
        <ele>78</ele>
        <time>2022-03-10T15:05:37Z</time>
      </trkpt>
      <trkpt lat="46.85123" lon="-1.17504">
        <ele>78</ele>
        <time>2022-03-10T15:06:03Z</time>
      </trkpt>
      <trkpt lat="46.85143" lon="-1.17489">
        <ele>78</ele>
        <time>2022-03-10T15:06:33Z</time>
      </trkpt>
      <trkpt lat="46.85161" lon="-1.17475">
        <ele>77</ele>
        <time>2022-03-10T15:07:00Z</time>
      </trkpt>
      <trkpt lat="46.85178" lon="-1.17464">
        <ele>77</ele>
        <time>2022-03-10T15:07:25Z</time>
      </trkpt>
      <trkpt lat="46.85203" lon="-1.17452">
        <ele>77</ele>
        <time>2022-03-10T15:08:00Z</time>
      </trkpt>
      <trkpt lat="46.85221" lon="-1.17445">
        <ele>77</ele>
        <time>2022-03-10T15:08:25Z</time>
      </trkpt>
      <trkpt lat="46.85236" lon="-1.17435">
        <ele>77</ele>
        <time>2022-03-10T15:08:47Z</time>
      </trkpt>
      <trkpt lat="46.85247" lon="-1.17422">
        <ele>77</ele>
        <time>2022-03-10T15:09:06Z</time>
      </trkpt>
      <trkpt lat="46.8526" lon="-1.17409">
        <ele>77</ele>
        <time>2022-03-10T15:09:27Z</time>
      </trkpt>
      <trkpt lat="46.85266" lon="-1.17382">
        <ele>77</ele>
        <time>2022-03-10T15:09:53Z</time>
      </trkpt>
      <trkpt lat="46.85281" lon="-1.17372">
        <ele>78</ele>
        <time>2022-03-10T15:10:15Z</time>
      </trkpt>
      <trkpt lat="46.85295" lon="-1.17361">
        <ele>78</ele>
        <time>2022-03-10T15:10:36Z</time>
      </trkpt>
      <trkpt lat="46.85316" lon="-1.17354">
        <ele>79</ele>
        <time>2022-03-10T15:11:05Z</time>
      </trkpt>
      <trkpt lat="46.85327" lon="-1.17346">
        <ele>79</ele>
        <time>2022-03-10T15:11:21Z</time>
      </trkpt>
      <trkpt lat="46.85346" lon="-1.17331">
        <ele>80</ele>
        <time>2022-03-10T15:11:50Z</time>
      </trkpt>
      <trkpt lat="46.85354" lon="-1.17318">
        <ele>80</ele>
        <time>2022-03-10T15:12:06Z</time>
      </trkpt>
      <trkpt lat="46.85372" lon="-1.17307">
        <ele>81</ele>
        <time>2022-03-10T15:12:32Z</time>
      </trkpt>
      <trkpt lat="46.85379" lon="-1.17273">
        <ele>81</ele>
        <time>2022-03-10T15:13:04Z</time>
      </trkpt>
      <trkpt lat="46.85393" lon="-1.17264">
        <ele>82</ele>
        <time>2022-03-10T15:13:25Z</time>
      </trkpt>
      <trkpt lat="46.85411" lon="-1.17251">
        <ele>83</ele>
        <time>2022-03-10T15:13:52Z</time>
      </trkpt>
      <trkpt lat="46.85429" lon="-1.17215">
        <ele>84</ele>
        <time>2022-03-10T15:14:32Z</time>
      </trkpt>
      <trkpt lat="46.85426" lon="-1.17199">
        <ele>84</ele>
        <time>2022-03-10T15:14:47Z</time>
      </trkpt>
      <trkpt lat="46.8541" lon="-1.17173">
        <ele>84</ele>
        <time>2022-03-10T15:15:19Z</time>
      </trkpt>
      <trkpt lat="46.85402" lon="-1.17158">
        <ele>83</ele>
        <time>2022-03-10T15:15:37Z</time>
      </trkpt>
      <trkpt lat="46.85391" lon="-1.17143">
        <ele>83</ele>
        <time>2022-03-10T15:15:57Z</time>
      </trkpt>
      <trkpt lat="46.8538" lon="-1.17132">
        <ele>82</ele>
        <time>2022-03-10T15:16:15Z</time>
      </trkpt>
      <trkpt lat="46.85367" lon="-1.17114">
        <ele>82</ele>
        <time>2022-03-10T15:16:38Z</time>
      </trkpt>
      <trkpt lat="46.8535" lon="-1.17111">
        <ele>81</ele>
        <time>2022-03-10T15:17:01Z</time>
      </trkpt>
      <trkpt lat="46.85333" lon="-1.1711">
        <ele>80</ele>
        <time>2022-03-10T15:17:24Z</time>
      </trkpt>
      <trkpt lat="46.85321" lon="-1.17112">
        <ele>80</ele>
        <time>2022-03-10T15:17:40Z</time>
      </trkpt>
      <trkpt lat="46.853" lon="-1.17113">
        <ele>80</ele>
        <time>2022-03-10T15:18:08Z</time>
      </trkpt>
      <trkpt lat="46.85282" lon="-1.17146">
        <ele>79</ele>
        <time>2022-03-10T15:18:47Z</time>
      </trkpt>
      <trkpt lat="46.85271" lon="-1.17166">
        <ele>78</ele>
        <time>2022-03-10T15:19:10Z</time>
      </trkpt>
      <trkpt lat="46.85263" lon="-1.17179">
        <ele>78</ele>
        <time>2022-03-10T15:19:26Z</time>
      </trkpt>
      <trkpt lat="46.85256" lon="-1.17179">
        <ele>78</ele>
        <time>2022-03-10T15:19:35Z</time>
      </trkpt>
      <trkpt lat="46.85226" lon="-1.17133">
        <ele>79</ele>
        <time>2022-03-10T15:20:33Z</time>
      </trkpt>
      <trkpt lat="46.85208" lon="-1.17141">
        <ele>79</ele>
        <time>2022-03-10T15:20:58Z</time>
      </trkpt>
      <trkpt lat="46.85188" lon="-1.1715">
        <ele>79</ele>
        <time>2022-03-10T15:21:26Z</time>
      </trkpt>
      <trkpt lat="46.85176" lon="-1.17164">
        <ele>78</ele>
        <time>2022-03-10T15:21:47Z</time>
      </trkpt>
      <trkpt lat="46.85155" lon="-1.17191">
        <ele>78</ele>
        <time>2022-03-10T15:22:24Z</time>
      </trkpt>
      <trkpt lat="46.85167" lon="-1.17236">
        <ele>76</ele>
        <time>2022-03-10T15:23:08Z</time>
      </trkpt>
      <trkpt lat="46.85176" lon="-1.17277">
        <ele>76</ele>
        <time>2022-03-10T15:23:48Z</time>
      </trkpt>
      <trkpt lat="46.85187" lon="-1.17302">
        <ele>76</ele>
        <time>2022-03-10T15:24:15Z</time>
      </trkpt>
      <trkpt lat="46.8519" lon="-1.17325">
        <ele>76</ele>
        <time>2022-03-10T15:24:36Z</time>
      </trkpt>
      <trkpt lat="46.85196" lon="-1.17347">
        <ele>76</ele>
        <time>2022-03-10T15:24:58Z</time>
      </trkpt>
      <trkpt lat="46.85197" lon="-1.17354">
        <ele>76</ele>
        <time>2022-03-10T15:25:04Z</time>
      </trkpt>
      <trkpt lat="46.85185" lon="-1.17357">
        <ele>76</ele>
        <time>2022-03-10T15:25:20Z</time>
      </trkpt>
      <trkpt lat="46.85182" lon="-1.17348">
        <ele>76</ele>
        <time>2022-03-10T15:25:30Z</time>
      </trkpt>
      <trkpt lat="46.85166" lon="-1.17354">
        <ele>75</ele>
        <time>2022-03-10T15:25:52Z</time>
      </trkpt>
      <trkpt lat="46.85155" lon="-1.17361">
        <ele>75</ele>
        <time>2022-03-10T15:26:08Z</time>
      </trkpt>
      <trkpt lat="46.85138" lon="-1.17369">
        <ele>75</ele>
        <time>2022-03-10T15:26:31Z</time>
      </trkpt>
      <trkpt lat="46.85121" lon="-1.17375">
        <ele>75</ele>
        <time>2022-03-10T15:26:55Z</time>
      </trkpt>
      <trkpt lat="46.85103" lon="-1.17383">
        <ele>75</ele>
        <time>2022-03-10T15:27:20Z</time>
      </trkpt>
      <trkpt lat="46.85092" lon="-1.17391">
        <ele>75</ele>
        <time>2022-03-10T15:27:36Z</time>
      </trkpt>
      <trkpt lat="46.85083" lon="-1.17391">
        <ele>75</ele>
        <time>2022-03-10T15:27:48Z</time>
      </trkpt>
      <trkpt lat="46.85066" lon="-1.17392">
        <ele>75</ele>
        <time>2022-03-10T15:28:11Z</time>
      </trkpt>
      <trkpt lat="46.85054" lon="-1.17394">
        <ele>76</ele>
        <time>2022-03-10T15:28:27Z</time>
      </trkpt>
      <trkpt lat="46.8504" lon="-1.17396">
        <ele>76</ele>
        <time>2022-03-10T15:28:46Z</time>
      </trkpt>
      <trkpt lat="46.85028" lon="-1.17377">
        <ele>76</ele>
        <time>2022-03-10T15:29:10Z</time>
      </trkpt>
      <trkpt lat="46.85022" lon="-1.17357">
        <ele>77</ele>
        <time>2022-03-10T15:29:29Z</time>
      </trkpt>
      <trkpt lat="46.85013" lon="-1.17343">
        <ele>77</ele>
        <time>2022-03-10T15:29:47Z</time>
      </trkpt>
      <trkpt lat="46.85001" lon="-1.17322">
        <ele>78</ele>
        <time>2022-03-10T15:30:12Z</time>
      </trkpt>
      <trkpt lat="46.84989" lon="-1.17299">
        <ele>79</ele>
        <time>2022-03-10T15:30:38Z</time>
      </trkpt>
      <trkpt lat="46.8498" lon="-1.17277">
        <ele>79</ele>
        <time>2022-03-10T15:31:02Z</time>
      </trkpt>
      <trkpt lat="46.84967" lon="-1.1725">
        <ele>79</ele>
        <time>2022-03-10T15:31:32Z</time>
      </trkpt>
      <trkpt lat="46.84953" lon="-1.17217">
        <ele>80</ele>
        <time>2022-03-10T15:32:07Z</time>
      </trkpt>
      <trkpt lat="46.84943" lon="-1.1719">
        <ele>80</ele>
        <time>2022-03-10T15:32:35Z</time>
      </trkpt>
      <trkpt lat="46.84936" lon="-1.17175">
        <ele>80</ele>
        <time>2022-03-10T15:32:52Z</time>
      </trkpt>
      <trkpt lat="46.84929" lon="-1.17157">
        <ele>80</ele>
        <time>2022-03-10T15:33:11Z</time>
      </trkpt>
      <trkpt lat="46.84922" lon="-1.17142">
        <ele>80</ele>
        <time>2022-03-10T15:33:27Z</time>
      </trkpt>
      <trkpt lat="46.84912" lon="-1.1712">
        <ele>81</ele>
        <time>2022-03-10T15:33:52Z</time>
      </trkpt>
      <trkpt lat="46.84905" lon="-1.17099">
        <ele>81</ele>
        <time>2022-03-10T15:34:13Z</time>
      </trkpt>
      <trkpt lat="46.84896" lon="-1.17075">
        <ele>81</ele>
        <time>2022-03-10T15:34:38Z</time>
      </trkpt>
      <trkpt lat="46.84888" lon="-1.17062">
        <ele>81</ele>
        <time>2022-03-10T15:34:54Z</time>
      </trkpt>
      <trkpt lat="46.84882" lon="-1.17044">
        <ele>81</ele>
        <time>2022-03-10T15:35:12Z</time>
      </trkpt>
      <trkpt lat="46.84872" lon="-1.17043">
        <ele>81</ele>
        <time>2022-03-10T15:35:25Z</time>
      </trkpt>
      <trkpt lat="46.84857" lon="-1.16994">
        <ele>82</ele>
        <time>2022-03-10T15:36:14Z</time>
      </trkpt>
      <trkpt lat="46.84843" lon="-1.1696">
        <ele>82</ele>
        <time>2022-03-10T15:36:51Z</time>
      </trkpt>
      <trkpt lat="46.84824" lon="-1.16906">
        <ele>81</ele>
        <time>2022-03-10T15:37:46Z</time>
      </trkpt>
      <trkpt lat="46.8481" lon="-1.16852">
        <ele>81</ele>
        <time>2022-03-10T15:38:39Z</time>
      </trkpt>
      <trkpt lat="46.848" lon="-1.16819">
        <ele>81</ele>
        <time>2022-03-10T15:39:12Z</time>
      </trkpt>
      <trkpt lat="46.84795" lon="-1.16783">
        <ele>81</ele>
        <time>2022-03-10T15:39:45Z</time>
      </trkpt>
      <trkpt lat="46.84788" lon="-1.16755">
        <ele>81</ele>
        <time>2022-03-10T15:40:12Z</time>
      </trkpt>
      <trkpt lat="46.8478" lon="-1.16737">
        <ele>80</ele>
        <time>2022-03-10T15:40:32Z</time>
      </trkpt>
      <trkpt lat="46.84756" lon="-1.16736">
        <ele>81</ele>
        <time>2022-03-10T15:41:04Z</time>
      </trkpt>
      <trkpt lat="46.84729" lon="-1.16713">
        <ele>80</ele>
        <time>2022-03-10T15:41:46Z</time>
      </trkpt>
      <trkpt lat="46.84701" lon="-1.16697">
        <ele>80</ele>
        <time>2022-03-10T15:42:26Z</time>
      </trkpt>
      <trkpt lat="46.84667" lon="-1.1671">
        <ele>80</ele>
        <time>2022-03-10T15:43:13Z</time>
      </trkpt>
      <trkpt lat="46.84619" lon="-1.16737">
        <ele>79</ele>
        <time>2022-03-10T15:44:21Z</time>
      </trkpt>
      <trkpt lat="46.84566" lon="-1.16785">
        <ele>77</ele>
        <time>2022-03-10T15:45:45Z</time>
      </trkpt>
      <trkpt lat="46.84541" lon="-1.16809">
        <ele>76</ele>
        <time>2022-03-10T15:46:25Z</time>
      </trkpt>
      <trkpt lat="46.84562" lon="-1.16834">
        <ele>77</ele>
        <time>2022-03-10T15:47:01Z</time>
      </trkpt>
      <trkpt lat="46.84594" lon="-1.16871">
        <ele>78</ele>
        <time>2022-03-10T15:47:55Z</time>
      </trkpt>
      <trkpt lat="46.84622" lon="-1.16902">
        <ele>79</ele>
        <time>2022-03-10T15:48:42Z</time>
      </trkpt>
      <trkpt lat="46.84662" lon="-1.16936">
        <ele>80</ele>
        <time>2022-03-10T15:49:44Z</time>
      </trkpt>
      <trkpt lat="46.84634" lon="-1.17029">
        <ele>79</ele>
        <time>2022-03-10T15:51:16Z</time>
      </trkpt>
      <trkpt lat="46.84562" lon="-1.17194">
        <ele>75</ele>
        <time>2022-03-10T15:54:15Z</time>
      </trkpt>
      <trkpt lat="46.84503" lon="-1.17142">
        <ele>71</ele>
        <time>2022-03-10T15:55:47Z</time>
      </trkpt>
      <trkpt lat="46.84498" lon="-1.17138">
        <ele>71</ele>
        <time>2022-03-10T15:55:55Z</time>
      </trkpt>
      <trkpt lat="46.84498" lon="-1.17149">
        <ele>71</ele>
        <time>2022-03-10T15:56:05Z</time>
      </trkpt>
      <trkpt lat="46.84487" lon="-1.17154">
        <ele>70</ele>
        <time>2022-03-10T15:56:20Z</time>
      </trkpt>
      <trkpt lat="46.84454" lon="-1.17125">
        <ele>69</ele>
        <time>2022-03-10T15:57:11Z</time>
      </trkpt>
      <trkpt lat="46.84429" lon="-1.17092">
        <ele>68</ele>
        <time>2022-03-10T15:57:56Z</time>
      </trkpt>
      <trkpt lat="46.84398" lon="-1.17065">
        <ele>68</ele>
        <time>2022-03-10T15:58:45Z</time>
      </trkpt>
      <trkpt lat="46.84392" lon="-1.17073">
        <ele>67</ele>
        <time>2022-03-10T15:58:55Z</time>
      </trkpt>
      <trkpt lat="46.84383" lon="-1.17085">
        <ele>67</ele>
        <time>2022-03-10T15:59:12Z</time>
      </trkpt>
      <trkpt lat="46.8438" lon="-1.17096">
        <ele>67</ele>
        <time>2022-03-10T15:59:22Z</time>
      </trkpt>
      <trkpt lat="46.84374" lon="-1.17105">
        <ele>67</ele>
        <time>2022-03-10T15:59:34Z</time>
      </trkpt>
      <trkpt lat="46.84349" lon="-1.171">
        <ele>67</ele>
        <time>2022-03-10T16:00:08Z</time>
      </trkpt>
      <trkpt lat="46.84312" lon="-1.1712">
        <ele>68</ele>
        <time>2022-03-10T16:01:00Z</time>
      </trkpt>
      <trkpt lat="46.84303" lon="-1.17124">
        <ele>69</ele>
        <time>2022-03-10T16:01:13Z</time>
      </trkpt>
      <trkpt lat="46.84288" lon="-1.17144">
        <ele>69</ele>
        <time>2022-03-10T16:01:40Z</time>
      </trkpt>
      <trkpt lat="46.84278" lon="-1.17171">
        <ele>70</ele>
        <time>2022-03-10T16:02:08Z</time>
      </trkpt>
      <trkpt lat="46.84261" lon="-1.17196">
        <ele>73</ele>
        <time>2022-03-10T16:02:40Z</time>
      </trkpt>
      <trkpt lat="46.8425" lon="-1.17205">
        <ele>74</ele>
        <time>2022-03-10T16:02:57Z</time>
      </trkpt>
      <trkpt lat="46.84237" lon="-1.17224">
        <ele>74</ele>
        <time>2022-03-10T16:03:21Z</time>
      </trkpt>
      <trkpt lat="46.84222" lon="-1.17247">
        <ele>75</ele>
        <time>2022-03-10T16:03:50Z</time>
      </trkpt>
      <trkpt lat="46.84209" lon="-1.17281">
        <ele>77</ele>
        <time>2022-03-10T16:04:26Z</time>
      </trkpt>
      <trkpt lat="46.84212" lon="-1.17312">
        <ele>78</ele>
        <time>2022-03-10T16:04:55Z</time>
      </trkpt>
      <trkpt lat="46.84223" lon="-1.17352">
        <ele>80</ele>
        <time>2022-03-10T16:05:34Z</time>
      </trkpt>
      <trkpt lat="46.84262" lon="-1.17381">
        <ele>80</ele>
        <time>2022-03-10T16:06:32Z</time>
      </trkpt>
      <trkpt lat="46.84309" lon="-1.17416">
        <ele>78</ele>
        <time>2022-03-10T16:07:43Z</time>
      </trkpt>
      <trkpt lat="46.84332" lon="-1.17436">
        <ele>78</ele>
        <time>2022-03-10T16:08:18Z</time>
      </trkpt>
      <trkpt lat="46.84342" lon="-1.17448">
        <ele>77</ele>
        <time>2022-03-10T16:08:36Z</time>
      </trkpt>
      <trkpt lat="46.84417" lon="-1.17507">
        <ele>73</ele>
        <time>2022-03-10T16:10:29Z</time>
      </trkpt>
      <trkpt lat="46.84455" lon="-1.17536">
        <ele>71</ele>
        <time>2022-03-10T16:11:27Z</time>
      </trkpt>
      <trkpt lat="46.84481" lon="-1.1756">
        <ele>70</ele>
        <time>2022-03-10T16:12:08Z</time>
      </trkpt>
      <trkpt lat="46.84493" lon="-1.17579">
        <ele>69</ele>
        <time>2022-03-10T16:12:31Z</time>
      </trkpt>
      <trkpt lat="46.84514" lon="-1.17615">
        <ele>69</ele>
        <time>2022-03-10T16:13:14Z</time>
      </trkpt>
      <trkpt lat="46.84531" lon="-1.17652">
        <ele>69</ele>
        <time>2022-03-10T16:13:55Z</time>
      </trkpt>
      <trkpt lat="46.84544" lon="-1.17683">
        <ele>69</ele>
        <time>2022-03-10T16:14:28Z</time>
      </trkpt>
      <trkpt lat="46.8456" lon="-1.17709">
        <ele>69</ele>
        <time>2022-03-10T16:15:00Z</time>
      </trkpt>
      <trkpt lat="46.84582" lon="-1.17694">
        <ele>68</ele>
        <time>2022-03-10T16:15:33Z</time>
      </trkpt>
      <trkpt lat="46.846" lon="-1.17685">
        <ele>68</ele>
        <time>2022-03-10T16:15:58Z</time>
      </trkpt>
      <trkpt lat="46.84621" lon="-1.17678">
        <ele>69</ele>
        <time>2022-03-10T16:16:27Z</time>
      </trkpt>
      <trkpt lat="46.8465" lon="-1.17676">
        <ele>70</ele>
        <time>2022-03-10T16:17:05Z</time>
      </trkpt>
      <trkpt lat="46.84655" lon="-1.17697">
        <ele>70</ele>
        <time>2022-03-10T16:17:26Z</time>
      </trkpt>
      <trkpt lat="46.84665" lon="-1.17725">
        <ele>69</ele>
        <time>2022-03-10T16:17:55Z</time>
      </trkpt>
      <trkpt lat="46.84672" lon="-1.17742">
        <ele>68</ele>
        <time>2022-03-10T16:18:13Z</time>
      </trkpt>
      <trkpt lat="46.84679" lon="-1.17772">
        <ele>68</ele>
        <time>2022-03-10T16:18:42Z</time>
      </trkpt>
      <trkpt lat="46.84686" lon="-1.17803">
        <ele>68</ele>
        <time>2022-03-10T16:19:11Z</time>
      </trkpt>
      <trkpt lat="46.84708" lon="-1.17838">
        <ele>67</ele>
        <time>2022-03-10T16:19:55Z</time>
      </trkpt>
      <trkpt lat="46.84717" lon="-1.17866">
        <ele>67</ele>
        <time>2022-03-10T16:20:23Z</time>
      </trkpt>
      <trkpt lat="46.84735" lon="-1.17872">
        <ele>67</ele>
        <time>2022-03-10T16:20:48Z</time>
      </trkpt>
      <trkpt lat="46.84756" lon="-1.17862">
        <ele>67</ele>
        <time>2022-03-10T16:21:17Z</time>
      </trkpt>
      <trkpt lat="46.84769" lon="-1.17856">
        <ele>68</ele>
        <time>2022-03-10T16:21:35Z</time>
      </trkpt>
      <trkpt lat="46.84775" lon="-1.17847">
        <ele>68</ele>
        <time>2022-03-10T16:21:47Z</time>
      </trkpt>
      <trkpt lat="46.84803" lon="-1.17839">
        <ele>69</ele>
        <time>2022-03-10T16:22:25Z</time>
      </trkpt>
      <trkpt lat="46.84828" lon="-1.17875">
        <ele>69</ele>
        <time>2022-03-10T16:23:12Z</time>
      </trkpt>
      <trkpt lat="46.84853" lon="-1.17912">
        <ele>71</ele>
        <time>2022-03-10T16:23:59Z</time>
      </trkpt>
      <trkpt lat="46.84883" lon="-1.17937">
        <ele>73</ele>
        <time>2022-03-10T16:24:45Z</time>
      </trkpt>
      <trkpt lat="46.84914" lon="-1.17959">
        <ele>74</ele>
        <time>2022-03-10T16:25:31Z</time>
      </trkpt>
      <trkpt lat="46.84932" lon="-1.17976">
        <ele>75</ele>
        <time>2022-03-10T16:26:00Z</time>
      </trkpt>
      <trkpt lat="46.84923" lon="-1.18005">
        <ele>75</ele>
        <time>2022-03-10T16:26:29Z</time>
      </trkpt>
      <trkpt lat="46.84913" lon="-1.18041">
        <ele>75</ele>
        <time>2022-03-10T16:27:04Z</time>
      </trkpt>
      <trkpt lat="46.849" lon="-1.18064">
        <ele>74</ele>
        <time>2022-03-10T16:27:32Z</time>
      </trkpt>
      <trkpt lat="46.84889" lon="-1.18085">
        <ele>74</ele>
        <time>2022-03-10T16:27:56Z</time>
      </trkpt>
      <trkpt lat="46.84879" lon="-1.18118">
        <ele>73</ele>
        <time>2022-03-10T16:28:29Z</time>
      </trkpt>
      <trkpt lat="46.84871" lon="-1.18138">
        <ele>72</ele>
        <time>2022-03-10T16:28:50Z</time>
      </trkpt>
      <trkpt lat="46.84862" lon="-1.18158">
        <ele>71</ele>
        <time>2022-03-10T16:29:12Z</time>
      </trkpt>
      <trkpt lat="46.84854" lon="-1.18176">
        <ele>70</ele>
        <time>2022-03-10T16:29:31Z</time>
      </trkpt>
      <trkpt lat="46.84837" lon="-1.18195">
        <ele>68</ele>
        <time>2022-03-10T16:30:00Z</time>
      </trkpt>
      <trkpt lat="46.84818" lon="-1.18216">
        <ele>66</ele>
        <time>2022-03-10T16:30:32Z</time>
      </trkpt>
      <trkpt lat="46.848" lon="-1.18233">
        <ele>65</ele>
        <time>2022-03-10T16:31:00Z</time>
      </trkpt>
      <trkpt lat="46.84789" lon="-1.18241">
        <ele>64</ele>
        <time>2022-03-10T16:31:17Z</time>
      </trkpt>
      <trkpt lat="46.8476" lon="-1.18263">
        <ele>62</ele>
        <time>2022-03-10T16:32:00Z</time>
      </trkpt>
      <trkpt lat="46.84755" lon="-1.18305">
        <ele>62</ele>
        <time>2022-03-10T16:32:39Z</time>
      </trkpt>
      <trkpt lat="46.84745" lon="-1.1835">
        <ele>61</ele>
        <time>2022-03-10T16:33:22Z</time>
      </trkpt>
      <trkpt lat="46.84721" lon="-1.18406">
        <ele>62</ele>
        <time>2022-03-10T16:34:23Z</time>
      </trkpt>
      <trkpt lat="46.84693" lon="-1.18418">
        <ele>62</ele>
        <time>2022-03-10T16:35:02Z</time>
      </trkpt>
      <trkpt lat="46.84664" lon="-1.1841">
        <ele>62</ele>
        <time>2022-03-10T16:35:41Z</time>
      </trkpt>
      <trkpt lat="46.84639" lon="-1.18423">
        <ele>63</ele>
        <time>2022-03-10T16:36:16Z</time>
      </trkpt>
      <trkpt lat="46.84632" lon="-1.18431">
        <ele>63</ele>
        <time>2022-03-10T16:36:28Z</time>
      </trkpt>
      <trkpt lat="46.84606" lon="-1.18427">
        <ele>63</ele>
        <time>2022-03-10T16:37:03Z</time>
      </trkpt>
      <trkpt lat="46.84596" lon="-1.1849">
        <ele>63</ele>
        <time>2022-03-10T16:38:02Z</time>
      </trkpt>
      <trkpt lat="46.84588" lon="-1.18523">
        <ele>63</ele>
        <time>2022-03-10T16:38:34Z</time>
      </trkpt>
      <trkpt lat="46.8458" lon="-1.1856">
        <ele>62</ele>
        <time>2022-03-10T16:39:09Z</time>
      </trkpt>
      <trkpt lat="46.84577" lon="-1.1859">
        <ele>62</ele>
        <time>2022-03-10T16:39:37Z</time>
      </trkpt>
      <trkpt lat="46.84575" lon="-1.18616">
        <ele>63</ele>
        <time>2022-03-10T16:40:01Z</time>
      </trkpt>
      <trkpt lat="46.84575" lon="-1.1864">
        <ele>64</ele>
        <time>2022-03-10T16:40:23Z</time>
      </trkpt>
      <trkpt lat="46.84577" lon="-1.18658">
        <ele>65</ele>
        <time>2022-03-10T16:40:40Z</time>
      </trkpt>
      <trkpt lat="46.84554" lon="-1.18674">
        <ele>65</ele>
        <time>2022-03-10T16:41:14Z</time>
      </trkpt>
      <trkpt lat="46.8454" lon="-1.18686">
        <ele>65</ele>
        <time>2022-03-10T16:41:35Z</time>
      </trkpt>
      <trkpt lat="46.84513" lon="-1.18691">
        <ele>64</ele>
        <time>2022-03-10T16:42:12Z</time>
      </trkpt>
      <trkpt lat="46.84495" lon="-1.18701">
        <ele>63</ele>
        <time>2022-03-10T16:42:37Z</time>
      </trkpt>
      <trkpt lat="46.84474" lon="-1.18729">
        <ele>63</ele>
        <time>2022-03-10T16:43:15Z</time>
      </trkpt>
      <trkpt lat="46.84471" lon="-1.18741">
        <ele>63</ele>
        <time>2022-03-10T16:43:27Z</time>
      </trkpt>
      <trkpt lat="46.84465" lon="-1.18767">
        <ele>63</ele>
        <time>2022-03-10T16:43:52Z</time>
      </trkpt>
      <trkpt lat="46.84468" lon="-1.18794">
        <ele>64</ele>
        <time>2022-03-10T16:44:17Z</time>
      </trkpt>
      <trkpt lat="46.84471" lon="-1.18825">
        <ele>64</ele>
        <time>2022-03-10T16:44:45Z</time>
      </trkpt>
      <trkpt lat="46.84476" lon="-1.18845">
        <ele>64</ele>
        <time>2022-03-10T16:45:05Z</time>
      </trkpt>
      <trkpt lat="46.84479" lon="-1.18855">
        <ele>65</ele>
        <time>2022-03-10T16:45:15Z</time>
      </trkpt>
      <trkpt lat="46.84488" lon="-1.18887">
        <ele>66</ele>
        <time>2022-03-10T16:45:46Z</time>
      </trkpt>
      <trkpt lat="46.84496" lon="-1.18911">
        <ele>67</ele>
        <time>2022-03-10T16:46:11Z</time>
      </trkpt>
      <trkpt lat="46.84524" lon="-1.18948">
        <ele>67</ele>
        <time>2022-03-10T16:47:01Z</time>
      </trkpt>
      <trkpt lat="46.84538" lon="-1.18971">
        <ele>67</ele>
        <time>2022-03-10T16:47:29Z</time>
      </trkpt>
      <trkpt lat="46.84567" lon="-1.19">
        <ele>67</ele>
        <time>2022-03-10T16:48:16Z</time>
      </trkpt>
      <trkpt lat="46.84587" lon="-1.19016">
        <ele>67</ele>
        <time>2022-03-10T16:48:47Z</time>
      </trkpt>
      <trkpt lat="46.84602" lon="-1.19024">
        <ele>66</ele>
        <time>2022-03-10T16:49:08Z</time>
      </trkpt>
      <trkpt lat="46.84619" lon="-1.19039">
        <ele>65</ele>
        <time>2022-03-10T16:49:34Z</time>
      </trkpt>
      <trkpt lat="46.84638" lon="-1.1905">
        <ele>64</ele>
        <time>2022-03-10T16:50:02Z</time>
      </trkpt>
      <trkpt lat="46.84652" lon="-1.19062">
        <ele>64</ele>
        <time>2022-03-10T16:50:23Z</time>
      </trkpt>
      <trkpt lat="46.84653" lon="-1.1907">
        <ele>64</ele>
        <time>2022-03-10T16:50:31Z</time>
      </trkpt>
      <trkpt lat="46.84649" lon="-1.1908">
        <ele>64</ele>
        <time>2022-03-10T16:50:41Z</time>
      </trkpt>
      <trkpt lat="46.84647" lon="-1.19095">
        <ele>65</ele>
        <time>2022-03-10T16:50:55Z</time>
      </trkpt>
      <trkpt lat="46.84716" lon="-1.19213">
        <ele>65</ele>
        <time>2022-03-10T16:53:17Z</time>
      </trkpt>
      <trkpt lat="46.84767" lon="-1.19304">
        <ele>66</ele>
        <time>2022-03-10T16:55:04Z</time>
      </trkpt>
      <trkpt lat="46.84776" lon="-1.19325">
        <ele>66</ele>
        <time>2022-03-10T16:55:27Z</time>
      </trkpt>
      <trkpt lat="46.84777" lon="-1.19342">
        <ele>67</ele>
        <time>2022-03-10T16:55:42Z</time>
      </trkpt>
      <trkpt lat="46.846" lon="-1.19504">
        <ele>70</ele>
        <time>2022-03-10T17:00:21Z</time>
      </trkpt>
      <trkpt lat="46.84562" lon="-1.19541">
        <ele>70</ele>
        <time>2022-03-10T17:01:22Z</time>
      </trkpt>
      <trkpt lat="46.8451" lon="-1.19604">
        <ele>71</ele>
        <time>2022-03-10T17:02:52Z</time>
      </trkpt>
      <trkpt lat="46.84468" lon="-1.19658">
        <ele>72</ele>
        <time>2022-03-10T17:04:07Z</time>
      </trkpt>
      <trkpt lat="46.84507" lon="-1.19752">
        <ele>71</ele>
        <time>2022-03-10T17:05:47Z</time>
      </trkpt>
      <trkpt lat="46.84544" lon="-1.19834">
        <ele>69</ele>
        <time>2022-03-10T17:07:17Z</time>
      </trkpt>
      <trkpt lat="46.84524" lon="-1.19887">
        <ele>69</ele>
        <time>2022-03-10T17:08:12Z</time>
      </trkpt>
      <trkpt lat="46.84489" lon="-1.19925">
        <ele>69</ele>
        <time>2022-03-10T17:09:10Z</time>
      </trkpt>
      <trkpt lat="46.8446" lon="-1.19979">
        <ele>67</ele>
        <time>2022-03-10T17:10:13Z</time>
      </trkpt>
      <trkpt lat="46.84437" lon="-1.19998">
        <ele>67</ele>
        <time>2022-03-10T17:10:48Z</time>
      </trkpt>
      <trkpt lat="46.84413" lon="-1.20025">
        <ele>68</ele>
        <time>2022-03-10T17:11:29Z</time>
      </trkpt>
      <trkpt lat="46.84399" lon="-1.20063">
        <ele>69</ele>
        <time>2022-03-10T17:12:08Z</time>
      </trkpt>
      <trkpt lat="46.84394" lon="-1.20086">
        <ele>69</ele>
        <time>2022-03-10T17:12:30Z</time>
      </trkpt>
      <trkpt lat="46.84388" lon="-1.20108">
        <ele>70</ele>
        <time>2022-03-10T17:12:52Z</time>
      </trkpt>
      <trkpt lat="46.84387" lon="-1.20149">
        <ele>70</ele>
        <time>2022-03-10T17:13:29Z</time>
      </trkpt>
      <trkpt lat="46.84373" lon="-1.20182">
        <ele>70</ele>
        <time>2022-03-10T17:14:05Z</time>
      </trkpt>
      <trkpt lat="46.84364" lon="-1.2021">
        <ele>70</ele>
        <time>2022-03-10T17:14:33Z</time>
      </trkpt>
      <trkpt lat="46.84356" lon="-1.20235">
        <ele>70</ele>
        <time>2022-03-10T17:14:58Z</time>
      </trkpt>
      <trkpt lat="46.84342" lon="-1.20254">
        <ele>71</ele>
        <time>2022-03-10T17:15:23Z</time>
      </trkpt>
      <trkpt lat="46.84294" lon="-1.2027">
        <ele>71</ele>
        <time>2022-03-10T17:16:29Z</time>
      </trkpt>
      <trkpt lat="46.84233" lon="-1.20295">
        <ele>72</ele>
        <time>2022-03-10T17:17:54Z</time>
      </trkpt>
      <trkpt lat="46.84195" lon="-1.20315">
        <ele>74</ele>
        <time>2022-03-10T17:18:48Z</time>
      </trkpt>
      <trkpt lat="46.84205" lon="-1.20368">
        <ele>74</ele>
        <time>2022-03-10T17:19:38Z</time>
      </trkpt>
      <trkpt lat="46.84205" lon="-1.20369">
        <ele>74</ele>
        <time>2022-03-10T17:19:39Z</time>
      </trkpt>
      <trkpt lat="46.84188" lon="-1.20376">
        <ele>74</ele>
        <time>2022-03-10T17:20:02Z</time>
      </trkpt>
      <trkpt lat="46.84163" lon="-1.20408">
        <ele>75</ele>
        <time>2022-03-10T17:20:47Z</time>
      </trkpt>
      <trkpt lat="46.84134" lon="-1.2043">
        <ele>77</ele>
        <time>2022-03-10T17:21:30Z</time>
      </trkpt>
      <trkpt lat="46.84093" lon="-1.20454">
        <ele>79</ele>
        <time>2022-03-10T17:22:29Z</time>
      </trkpt>
      <trkpt lat="46.84062" lon="-1.20469">
        <ele>80</ele>
        <time>2022-03-10T17:23:13Z</time>
      </trkpt>
      <trkpt lat="46.83978" lon="-1.20516">
        <ele>81</ele>
        <time>2022-03-10T17:25:13Z</time>
      </trkpt>
      <trkpt lat="46.83972" lon="-1.20485">
        <ele>81</ele>
        <time>2022-03-10T17:25:42Z</time>
      </trkpt>
      <trkpt lat="46.83972" lon="-1.20448">
        <ele>80</ele>
        <time>2022-03-10T17:26:16Z</time>
      </trkpt>
      <trkpt lat="46.83976" lon="-1.2038">
        <ele>79</ele>
        <time>2022-03-10T17:27:18Z</time>
      </trkpt>
      <trkpt lat="46.83984" lon="-1.2034">
        <ele>79</ele>
        <time>2022-03-10T17:27:56Z</time>
      </trkpt>
      <trkpt lat="46.83989" lon="-1.2029">
        <ele>79</ele>
        <time>2022-03-10T17:28:42Z</time>
      </trkpt>
      <trkpt lat="46.83997" lon="-1.20235">
        <ele>79</ele>
        <time>2022-03-10T17:29:34Z</time>
      </trkpt>
      <trkpt lat="46.83998" lon="-1.20199">
        <ele>78</ele>
        <time>2022-03-10T17:30:07Z</time>
      </trkpt>
      <trkpt lat="46.83994" lon="-1.20164">
        <ele>78</ele>
        <time>2022-03-10T17:30:39Z</time>
      </trkpt>
      <trkpt lat="46.84013" lon="-1.20144">
        <ele>78</ele>
        <time>2022-03-10T17:31:10Z</time>
      </trkpt>
      <trkpt lat="46.84037" lon="-1.2013">
        <ele>78</ele>
        <time>2022-03-10T17:31:45Z</time>
      </trkpt>
      <trkpt lat="46.84057" lon="-1.20114">
        <ele>78</ele>
        <time>2022-03-10T17:32:15Z</time>
      </trkpt>
      <trkpt lat="46.84076" lon="-1.20094">
        <ele>78</ele>
        <time>2022-03-10T17:32:46Z</time>
      </trkpt>
      <trkpt lat="46.84095" lon="-1.20077">
        <ele>78</ele>
        <time>2022-03-10T17:33:16Z</time>
      </trkpt>
      <trkpt lat="46.8411" lon="-1.20065">
        <ele>77</ele>
        <time>2022-03-10T17:33:39Z</time>
      </trkpt>
      <trkpt lat="46.84129" lon="-1.20039">
        <ele>76</ele>
        <time>2022-03-10T17:34:14Z</time>
      </trkpt>
      <trkpt lat="46.84122" lon="-1.2">
        <ele>76</ele>
        <time>2022-03-10T17:34:50Z</time>
      </trkpt>
      <trkpt lat="46.84111" lon="-1.19955">
        <ele>76</ele>
        <time>2022-03-10T17:35:34Z</time>
      </trkpt>
      <trkpt lat="46.841" lon="-1.1991">
        <ele>76</ele>
        <time>2022-03-10T17:36:18Z</time>
      </trkpt>
      <trkpt lat="46.84094" lon="-1.19875">
        <ele>76</ele>
        <time>2022-03-10T17:36:51Z</time>
      </trkpt>
      <trkpt lat="46.84092" lon="-1.19833">
        <ele>76</ele>
        <time>2022-03-10T17:37:29Z</time>
      </trkpt>
      <trkpt lat="46.8409" lon="-1.19811">
        <ele>76</ele>
        <time>2022-03-10T17:37:49Z</time>
      </trkpt>
      <trkpt lat="46.84086" lon="-1.19787">
        <ele>76</ele>
        <time>2022-03-10T17:38:12Z</time>
      </trkpt>
      <trkpt lat="46.84081" lon="-1.19762">
        <ele>76</ele>
        <time>2022-03-10T17:38:36Z</time>
      </trkpt>
      <trkpt lat="46.84076" lon="-1.19734">
        <ele>76</ele>
        <time>2022-03-10T17:39:02Z</time>
      </trkpt>
      <trkpt lat="46.84068" lon="-1.19715">
        <ele>77</ele>
        <time>2022-03-10T17:39:22Z</time>
      </trkpt>
      <trkpt lat="46.84061" lon="-1.19689">
        <ele>77</ele>
        <time>2022-03-10T17:39:48Z</time>
      </trkpt>
      <trkpt lat="46.84053" lon="-1.19661">
        <ele>78</ele>
        <time>2022-03-10T17:40:16Z</time>
      </trkpt>
      <trkpt lat="46.84045" lon="-1.19632">
        <ele>78</ele>
        <time>2022-03-10T17:40:44Z</time>
      </trkpt>
      <trkpt lat="46.84039" lon="-1.19602">
        <ele>78</ele>
        <time>2022-03-10T17:41:13Z</time>
      </trkpt>
      <trkpt lat="46.84028" lon="-1.19561">
        <ele>78</ele>
        <time>2022-03-10T17:41:53Z</time>
      </trkpt>
      <trkpt lat="46.84027" lon="-1.19542">
        <ele>77</ele>
        <time>2022-03-10T17:42:10Z</time>
      </trkpt>
      <trkpt lat="46.84067" lon="-1.1928">
        <ele>69</ele>
        <time>2022-03-10T17:46:15Z</time>
      </trkpt>
      <trkpt lat="46.84131" lon="-1.19288">
        <ele>70</ele>
        <time>2022-03-10T17:47:41Z</time>
      </trkpt>
      <trkpt lat="46.84183" lon="-1.19298">
        <ele>70</ele>
        <time>2022-03-10T17:48:51Z</time>
      </trkpt>
      <trkpt lat="46.84213" lon="-1.19305">
        <ele>70</ele>
        <time>2022-03-10T17:49:32Z</time>
      </trkpt>
      <trkpt lat="46.84253" lon="-1.19312">
        <ele>68</ele>
        <time>2022-03-10T17:50:25Z</time>
      </trkpt>
      <trkpt lat="46.84292" lon="-1.19325">
        <ele>68</ele>
        <time>2022-03-10T17:51:19Z</time>
      </trkpt>
      <trkpt lat="46.84353" lon="-1.19379">
        <ele>69</ele>
        <time>2022-03-10T17:52:54Z</time>
      </trkpt>
      <trkpt lat="46.84383" lon="-1.19408">
        <ele>69</ele>
        <time>2022-03-10T17:53:42Z</time>
      </trkpt>
      <trkpt lat="46.84401" lon="-1.19439">
        <ele>70</ele>
        <time>2022-03-10T17:54:19Z</time>
      </trkpt>
      <trkpt lat="46.84418" lon="-1.19495">
        <ele>71</ele>
        <time>2022-03-10T17:55:15Z</time>
      </trkpt>
      <trkpt lat="46.84439" lon="-1.19556">
        <ele>72</ele>
        <time>2022-03-10T17:56:17Z</time>
      </trkpt>
      <trkpt lat="46.84464" lon="-1.19642">
        <ele>72</ele>
        <time>2022-03-10T17:57:43Z</time>
      </trkpt>
      <trkpt lat="46.84522" lon="-1.19577">
        <ele>71</ele>
        <time>2022-03-10T17:59:20Z</time>
      </trkpt>
      <trkpt lat="46.84579" lon="-1.19509">
        <ele>69</ele>
        <time>2022-03-10T18:00:58Z</time>
      </trkpt>
      <trkpt lat="46.84761" lon="-1.19338">
        <ele>68</ele>
        <time>2022-03-10T18:05:47Z</time>
      </trkpt>
      <trkpt lat="46.84633" lon="-1.1911">
        <ele>65</ele>
        <time>2022-03-10T18:10:16Z</time>
      </trkpt>
      <trkpt lat="46.84639" lon="-1.19067">
        <ele>64</ele>
        <time>2022-03-10T18:10:56Z</time>
      </trkpt>
      <trkpt lat="46.84602" lon="-1.19045">
        <ele>66</ele>
        <time>2022-03-10T18:11:50Z</time>
      </trkpt>
      <trkpt lat="46.84567" lon="-1.19018">
        <ele>67</ele>
        <time>2022-03-10T18:12:42Z</time>
      </trkpt>
      <trkpt lat="46.8454" lon="-1.18992">
        <ele>68</ele>
        <time>2022-03-10T18:13:25Z</time>
      </trkpt>
      <trkpt lat="46.84515" lon="-1.18971">
        <ele>68</ele>
        <time>2022-03-10T18:14:04Z</time>
      </trkpt>
      <trkpt lat="46.84504" lon="-1.18946">
        <ele>68</ele>
        <time>2022-03-10T18:14:31Z</time>
      </trkpt>
      <trkpt lat="46.84481" lon="-1.18918">
        <ele>67</ele>
        <time>2022-03-10T18:15:11Z</time>
      </trkpt>
      <trkpt lat="46.84473" lon="-1.18881">
        <ele>66</ele>
        <time>2022-03-10T18:15:46Z</time>
      </trkpt>
      <trkpt lat="46.84458" lon="-1.18845">
        <ele>65</ele>
        <time>2022-03-10T18:16:25Z</time>
      </trkpt>
      <trkpt lat="46.84459" lon="-1.18812">
        <ele>64</ele>
        <time>2022-03-10T18:16:55Z</time>
      </trkpt>
      <trkpt lat="46.84453" lon="-1.18784">
        <ele>64</ele>
        <time>2022-03-10T18:17:22Z</time>
      </trkpt>
      <trkpt lat="46.84449" lon="-1.18754">
        <ele>63</ele>
        <time>2022-03-10T18:17:50Z</time>
      </trkpt>
      <trkpt lat="46.84461" lon="-1.18715">
        <ele>63</ele>
        <time>2022-03-10T18:18:29Z</time>
      </trkpt>
      <trkpt lat="46.8448" lon="-1.187">
        <ele>63</ele>
        <time>2022-03-10T18:18:58Z</time>
      </trkpt>
      <trkpt lat="46.84496" lon="-1.18686">
        <ele>64</ele>
        <time>2022-03-10T18:19:22Z</time>
      </trkpt>
      <trkpt lat="46.84513" lon="-1.18675">
        <ele>64</ele>
        <time>2022-03-10T18:19:47Z</time>
      </trkpt>
      <trkpt lat="46.84522" lon="-1.18685">
        <ele>64</ele>
        <time>2022-03-10T18:20:02Z</time>
      </trkpt>
      <trkpt lat="46.84531" lon="-1.18682">
        <ele>64</ele>
        <time>2022-03-10T18:20:15Z</time>
      </trkpt>
      <trkpt lat="46.84563" lon="-1.18673">
        <ele>65</ele>
        <time>2022-03-10T18:20:58Z</time>
      </trkpt>
      <trkpt lat="46.84582" lon="-1.18668">
        <ele>65</ele>
        <time>2022-03-10T18:21:24Z</time>
      </trkpt>
      <trkpt lat="46.84578" lon="-1.18629">
        <ele>64</ele>
        <time>2022-03-10T18:22:00Z</time>
      </trkpt>
      <trkpt lat="46.84578" lon="-1.18601">
        <ele>63</ele>
        <time>2022-03-10T18:22:25Z</time>
      </trkpt>
      <trkpt lat="46.84581" lon="-1.18572">
        <ele>62</ele>
        <time>2022-03-10T18:22:52Z</time>
      </trkpt>
      <trkpt lat="46.84587" lon="-1.18544">
        <ele>63</ele>
        <time>2022-03-10T18:23:19Z</time>
      </trkpt>
      <trkpt lat="46.84596" lon="-1.18503">
        <ele>63</ele>
        <time>2022-03-10T18:23:58Z</time>
      </trkpt>
      <trkpt lat="46.846" lon="-1.18474">
        <ele>63</ele>
        <time>2022-03-10T18:24:25Z</time>
      </trkpt>
      <trkpt lat="46.846" lon="-1.18447">
        <ele>63</ele>
        <time>2022-03-10T18:24:50Z</time>
      </trkpt>
      <trkpt lat="46.84601" lon="-1.18436">
        <ele>63</ele>
        <time>2022-03-10T18:25:00Z</time>
      </trkpt>
      <trkpt lat="46.84613" lon="-1.1845">
        <ele>63</ele>
        <time>2022-03-10T18:25:21Z</time>
      </trkpt>
      <trkpt lat="46.84621" lon="-1.18467">
        <ele>63</ele>
        <time>2022-03-10T18:25:39Z</time>
      </trkpt>
      <trkpt lat="46.84628" lon="-1.18474">
        <ele>63</ele>
        <time>2022-03-10T18:25:51Z</time>
      </trkpt>
      <trkpt lat="46.84627" lon="-1.18496">
        <ele>63</ele>
        <time>2022-03-10T18:26:11Z</time>
      </trkpt>
      <trkpt lat="46.84625" lon="-1.18521">
        <ele>63</ele>
        <time>2022-03-10T18:26:34Z</time>
      </trkpt>
      <trkpt lat="46.84628" lon="-1.18547">
        <ele>63</ele>
        <time>2022-03-10T18:26:58Z</time>
      </trkpt>
      <trkpt lat="46.84626" lon="-1.18571">
        <ele>63</ele>
        <time>2022-03-10T18:27:20Z</time>
      </trkpt>
      <trkpt lat="46.84629" lon="-1.18593">
        <ele>64</ele>
        <time>2022-03-10T18:27:40Z</time>
      </trkpt>
      <trkpt lat="46.84628" lon="-1.18609">
        <ele>65</ele>
        <time>2022-03-10T18:27:55Z</time>
      </trkpt>
      <trkpt lat="46.84631" lon="-1.18621">
        <ele>65</ele>
        <time>2022-03-10T18:28:07Z</time>
      </trkpt>
      <trkpt lat="46.8464" lon="-1.18649">
        <ele>67</ele>
        <time>2022-03-10T18:28:35Z</time>
      </trkpt>
      <trkpt lat="46.84661" lon="-1.18685">
        <ele>69</ele>
        <time>2022-03-10T18:29:18Z</time>
      </trkpt>
      <trkpt lat="46.84674" lon="-1.18705">
        <ele>70</ele>
        <time>2022-03-10T18:29:43Z</time>
      </trkpt>
      <trkpt lat="46.84687" lon="-1.18728">
        <ele>70</ele>
        <time>2022-03-10T18:30:11Z</time>
      </trkpt>
      <trkpt lat="46.84704" lon="-1.18759">
        <ele>71</ele>
        <time>2022-03-10T18:30:47Z</time>
      </trkpt>
      <trkpt lat="46.84716" lon="-1.18768">
        <ele>71</ele>
        <time>2022-03-10T18:31:05Z</time>
      </trkpt>
      <trkpt lat="46.84733" lon="-1.18741">
        <ele>71</ele>
        <time>2022-03-10T18:31:38Z</time>
      </trkpt>
      <trkpt lat="46.84753" lon="-1.18713">
        <ele>70</ele>
        <time>2022-03-10T18:32:15Z</time>
      </trkpt>
      <trkpt lat="46.84771" lon="-1.18688">
        <ele>69</ele>
        <time>2022-03-10T18:32:48Z</time>
      </trkpt>
      <trkpt lat="46.84787" lon="-1.1866">
        <ele>68</ele>
        <time>2022-03-10T18:33:22Z</time>
      </trkpt>
      <trkpt lat="46.84805" lon="-1.18639">
        <ele>68</ele>
        <time>2022-03-10T18:33:52Z</time>
      </trkpt>
      <trkpt lat="46.84822" lon="-1.1861">
        <ele>67</ele>
        <time>2022-03-10T18:34:27Z</time>
      </trkpt>
      <trkpt lat="46.84836" lon="-1.18587">
        <ele>66</ele>
        <time>2022-03-10T18:34:55Z</time>
      </trkpt>
      <trkpt lat="46.84847" lon="-1.18562">
        <ele>67</ele>
        <time>2022-03-10T18:35:23Z</time>
      </trkpt>
      <trkpt lat="46.84856" lon="-1.18553">
        <ele>67</ele>
        <time>2022-03-10T18:35:37Z</time>
      </trkpt>
      <trkpt lat="46.84879" lon="-1.18545">
        <ele>68</ele>
        <time>2022-03-10T18:36:09Z</time>
      </trkpt>
      <trkpt lat="46.84904" lon="-1.18538">
        <ele>69</ele>
        <time>2022-03-10T18:36:43Z</time>
      </trkpt>
      <trkpt lat="46.84924" lon="-1.18528">
        <ele>70</ele>
        <time>2022-03-10T18:37:11Z</time>
      </trkpt>
      <trkpt lat="46.84945" lon="-1.18521">
        <ele>71</ele>
        <time>2022-03-10T18:37:40Z</time>
      </trkpt>
      <trkpt lat="46.84974" lon="-1.18509">
        <ele>73</ele>
        <time>2022-03-10T18:38:20Z</time>
      </trkpt>
      <trkpt lat="46.84999" lon="-1.18503">
        <ele>74</ele>
        <time>2022-03-10T18:38:54Z</time>
      </trkpt>
      <trkpt lat="46.8502" lon="-1.18494">
        <ele>74</ele>
        <time>2022-03-10T18:39:23Z</time>
      </trkpt>
      <trkpt lat="46.85034" lon="-1.18489">
        <ele>74</ele>
        <time>2022-03-10T18:39:42Z</time>
      </trkpt>
      <trkpt lat="46.85032" lon="-1.18469">
        <ele>74</ele>
        <time>2022-03-10T18:40:01Z</time>
      </trkpt>
      <trkpt lat="46.85033" lon="-1.18455">
        <ele>74</ele>
        <time>2022-03-10T18:40:13Z</time>
      </trkpt>
      <trkpt lat="46.85035" lon="-1.18441">
        <ele>74</ele>
        <time>2022-03-10T18:40:26Z</time>
      </trkpt>
      <trkpt lat="46.8504" lon="-1.18425">
        <ele>74</ele>
        <time>2022-03-10T18:40:42Z</time>
      </trkpt>
      <trkpt lat="46.85055" lon="-1.18418">
        <ele>74</ele>
        <time>2022-03-10T18:41:03Z</time>
      </trkpt>
      <trkpt lat="46.85082" lon="-1.1841">
        <ele>75</ele>
        <time>2022-03-10T18:41:40Z</time>
      </trkpt>
      <trkpt lat="46.85106" lon="-1.18402">
        <ele>76</ele>
        <time>2022-03-10T18:42:13Z</time>
      </trkpt>
      <trkpt lat="46.85133" lon="-1.18402">
        <ele>78</ele>
        <time>2022-03-10T18:42:49Z</time>
      </trkpt>
      <trkpt lat="46.85153" lon="-1.18421">
        <ele>78</ele>
        <time>2022-03-10T18:43:21Z</time>
      </trkpt>
      <trkpt lat="46.8516" lon="-1.18432">
        <ele>79</ele>
        <time>2022-03-10T18:43:35Z</time>
      </trkpt>
      <trkpt lat="46.8518" lon="-1.18413">
        <ele>79</ele>
        <time>2022-03-10T18:44:06Z</time>
      </trkpt>
      <trkpt lat="46.85189" lon="-1.18397">
        <ele>80</ele>
        <time>2022-03-10T18:44:25Z</time>
      </trkpt>
      <trkpt lat="46.85197" lon="-1.18385">
        <ele>81</ele>
        <time>2022-03-10T18:44:41Z</time>
      </trkpt>
      <trkpt lat="46.85208" lon="-1.18368">
        <ele>82</ele>
        <time>2022-03-10T18:45:02Z</time>
      </trkpt>
      <trkpt lat="46.85209" lon="-1.18351">
        <ele>82</ele>
        <time>2022-03-10T18:45:18Z</time>
      </trkpt>
      <trkpt lat="46.85217" lon="-1.1834">
        <ele>83</ele>
        <time>2022-03-10T18:45:32Z</time>
      </trkpt>
      <trkpt lat="46.85232" lon="-1.18328">
        <ele>84</ele>
        <time>2022-03-10T18:45:55Z</time>
      </trkpt>
      <trkpt lat="46.85253" lon="-1.18318">
        <ele>85</ele>
        <time>2022-03-10T18:46:25Z</time>
      </trkpt>
      <trkpt lat="46.85277" lon="-1.18303">
        <ele>85</ele>
        <time>2022-03-10T18:46:59Z</time>
      </trkpt>
      <trkpt lat="46.85284" lon="-1.1829">
        <ele>85</ele>
        <time>2022-03-10T18:47:14Z</time>
      </trkpt>
      <trkpt lat="46.85299" lon="-1.18289">
        <ele>85</ele>
        <time>2022-03-10T18:47:35Z</time>
      </trkpt>
      <trkpt lat="46.85302" lon="-1.18245">
        <ele>85</ele>
        <time>2022-03-10T18:48:15Z</time>
      </trkpt>
      <trkpt lat="46.85298" lon="-1.18222">
        <ele>85</ele>
        <time>2022-03-10T18:48:37Z</time>
      </trkpt>
      <trkpt lat="46.85284" lon="-1.1819">
        <ele>85</ele>
        <time>2022-03-10T18:49:11Z</time>
      </trkpt>
      <trkpt lat="46.85277" lon="-1.18174">
        <ele>85</ele>
        <time>2022-03-10T18:49:29Z</time>
      </trkpt>
      <trkpt lat="46.85254" lon="-1.1815">
        <ele>84</ele>
        <time>2022-03-10T18:50:06Z</time>
      </trkpt>
      <trkpt lat="46.85226" lon="-1.18163">
        <ele>84</ele>
        <time>2022-03-10T18:50:45Z</time>
      </trkpt>
      <trkpt lat="46.85201" lon="-1.18194">
        <ele>84</ele>
        <time>2022-03-10T18:51:29Z</time>
      </trkpt>
      <trkpt lat="46.8519" lon="-1.18192">
        <ele>84</ele>
        <time>2022-03-10T18:51:44Z</time>
      </trkpt>
      <trkpt lat="46.85176" lon="-1.18174">
        <ele>83</ele>
        <time>2022-03-10T18:52:09Z</time>
      </trkpt>
      <trkpt lat="46.85162" lon="-1.18163">
        <ele>82</ele>
        <time>2022-03-10T18:52:30Z</time>
      </trkpt>
      <trkpt lat="46.85153" lon="-1.18156">
        <ele>81</ele>
        <time>2022-03-10T18:52:44Z</time>
      </trkpt>
      <trkpt lat="46.85132" lon="-1.18143">
        <ele>81</ele>
        <time>2022-03-10T18:53:14Z</time>
      </trkpt>
      <trkpt lat="46.85134" lon="-1.18114">
        <ele>80</ele>
        <time>2022-03-10T18:53:41Z</time>
      </trkpt>
      <trkpt lat="46.85131" lon="-1.18106">
        <ele>80</ele>
        <time>2022-03-10T18:53:49Z</time>
      </trkpt>
      <trkpt lat="46.85125" lon="-1.1809">
        <ele>80</ele>
        <time>2022-03-10T18:54:06Z</time>
      </trkpt>
      <trkpt lat="46.85135" lon="-1.18055">
        <ele>80</ele>
        <time>2022-03-10T18:54:40Z</time>
      </trkpt>
      <trkpt lat="46.85131" lon="-1.18042">
        <ele>80</ele>
        <time>2022-03-10T18:54:53Z</time>
      </trkpt>
      <trkpt lat="46.85125" lon="-1.18034">
        <ele>80</ele>
        <time>2022-03-10T18:55:04Z</time>
      </trkpt>
      <trkpt lat="46.85119" lon="-1.18016">
        <ele>79</ele>
        <time>2022-03-10T18:55:22Z</time>
      </trkpt>
      <trkpt lat="46.85119" lon="-1.17993">
        <ele>79</ele>
        <time>2022-03-10T18:55:43Z</time>
      </trkpt>
      <trkpt lat="46.85119" lon="-1.17966">
        <ele>80</ele>
        <time>2022-03-10T18:56:08Z</time>
      </trkpt>
      <trkpt lat="46.85133" lon="-1.17949">
        <ele>80</ele>
        <time>2022-03-10T18:56:32Z</time>
      </trkpt>
      <trkpt lat="46.85138" lon="-1.17925">
        <ele>80</ele>
        <time>2022-03-10T18:56:55Z</time>
      </trkpt>
      <trkpt lat="46.85143" lon="-1.179">
        <ele>80</ele>
        <time>2022-03-10T18:57:19Z</time>
      </trkpt>
      <trkpt lat="46.85146" lon="-1.17879">
        <ele>80</ele>
        <time>2022-03-10T18:57:39Z</time>
      </trkpt>
      <trkpt lat="46.85152" lon="-1.17861">
        <ele>81</ele>
        <time>2022-03-10T18:57:57Z</time>
      </trkpt>
      <trkpt lat="46.85153" lon="-1.17846">
        <ele>81</ele>
        <time>2022-03-10T18:58:11Z</time>
      </trkpt>
      <trkpt lat="46.85155" lon="-1.17835">
        <ele>81</ele>
        <time>2022-03-10T18:58:21Z</time>
      </trkpt>
      <trkpt lat="46.8515" lon="-1.17819">
        <ele>80</ele>
        <time>2022-03-10T18:58:37Z</time>
      </trkpt>
      <trkpt lat="46.85147" lon="-1.17809">
        <ele>80</ele>
        <time>2022-03-10T18:58:47Z</time>
      </trkpt>
      <trkpt lat="46.85147" lon="-1.17799">
        <ele>80</ele>
        <time>2022-03-10T18:58:56Z</time>
      </trkpt>
      <trkpt lat="46.85142" lon="-1.17782">
        <ele>80</ele>
        <time>2022-03-10T18:59:13Z</time>
      </trkpt>
      <trkpt lat="46.85131" lon="-1.1778">
        <ele>79</ele>
        <time>2022-03-10T18:59:28Z</time>
      </trkpt>
      <trkpt lat="46.85119" lon="-1.17777">
        <ele>79</ele>
        <time>2022-03-10T18:59:44Z</time>
      </trkpt>
      <trkpt lat="46.85114" lon="-1.17772">
        <ele>79</ele>
        <time>2022-03-10T18:59:52Z</time>
      </trkpt>
      <trkpt lat="46.85112" lon="-1.17754">
        <ele>78</ele>
        <time>2022-03-10T19:00:09Z</time>
      </trkpt>
    </trkseg>
  </trk>
</gpx>